Lincoln, Idaho
Current Conditions -  °F | °C
As of 2:53 AM on Friday 31 Oct 2014 (Local Time) from KIDA Reporting Station
Clear Clear  
Wind Chill: 38°   Ceiling: Unl
Heat Index: 38°   Visibility: 10mi
Dew Point: 30°   Wind: 3mph
Humidity: 73%   Direction: 360°N
Pressure: 30.05"   Gusts: NA
Location:  43.498°N, 111.73°W
Report Text: KIDA 310853Z 36003KT 10SM CLR 03/M01 A3005 RMK AO2 SLP161 T00331011 56013
Loading
Personal Weather Stations






























Interactive Weather Map
Tropical Storm Tracking
New forecast layout! Learn more

10-Day Weather Forecast

Advertisements
Track Severe Weather on mobile